Time;durP1;ratioP1;P1;durP2;ratioP2;P2;SDS_P1;SDS_P2;PMS_P1;PMS_P2;Temp;Humidity;BMP_temperature;BMP_pressure;BME280_temperature;BME280_humidity;BME280_pressure;Samples;Min_cycle;Max_cycle;Signal;HPM_P1;HPM_P2
2023/06/24 00:01:54;;;;;;;4.70;1.80;;;25.00;42.10;;;;;;6232552;28;20100;-74
2023/06/24 00:05:00;;;;;;;4.13;2.05;;;25.00;42.30;;;;;;6236969;28;20335;-75
2023/06/24 00:08:02;;;;;;;7.82;2.10;;;24.90;42.50;;;;;;6242465;28;20088;-76
2023/06/24 00:11:03;;;;;;;3.10;1.75;;;24.80;42.70;;;;;;6257313;28;20128;-76
2023/06/24 00:14:05;;;;;;;5.88;2.17;;;24.70;42.80;;;;;;6257260;28;20030;-75
2023/06/24 00:17:07;;;;;;;3.92;1.70;;;24.70;42.90;;;;;;6240610;28;20061;-74
2023/06/24 00:20:10;;;;;;;2.63;1.92;;;24.60;43.00;;;;;;6241816;28;20113;-75
2023/06/24 00:23:14;;;;;;;3.17;1.83;;;24.60;43.10;;;;;;6240444;28;20156;-74
2023/06/24 00:26:16;;;;;;;9.80;1.90;;;24.60;43.20;;;;;;6242260;28;20033;-76
2023/06/24 00:29:17;;;;;;;3.45;2.03;;;24.60;43.20;;;;;;6257750;28;20044;-76
2023/06/24 00:32:18;;;;;;;3.42;1.95;;;24.50;43.20;;;;;;6241509;28;20131;-74
2023/06/24 00:35:19;;;;;;;2.97;1.70;;;24.50;43.20;;;;;;6257382;28;20045;-77
2023/06/24 00:38:21;;;;;;;4.53;2.17;;;24.50;43.20;;;;;;6252814;28;20099;-76
2023/06/24 00:41:22;;;;;;;5.00;2.17;;;24.50;43.30;;;;;;6239535;28;20033;-74
2023/06/24 00:44:23;;;;;;;3.90;2.10;;;24.50;43.40;;;;;;6241622;28;20055;-74
2023/06/24 00:47:26;;;;;;;2.25;1.67;;;24.40;43.60;;;;;;6239892;28;20041;-75
2023/06/24 00:50:27;;;;;;;5.15;1.80;;;24.40;43.80;;;;;;6241043;28;20033;-74
2023/06/24 00:53:28;;;;;;;3.92;1.83;;;24.30;44.60;;;;;;6240930;28;20111;-73
2023/06/24 00:56:38;;;;;;;5.85;1.75;;;24.30;44.00;;;;;;6256513;28;20044;-74
2023/06/24 00:59:42;;;;;;;3.65;1.95;;;24.20;44.00;;;;;;6239865;28;20112;-74
2023/06/24 01:02:44;;;;;;;6.18;2.13;;;24.20;44.10;;;;;;6241040;28;20037;-74
2023/06/24 01:05:45;;;;;;;6.65;2.38;;;24.20;44.20;;;;;;6239908;28;20033;-75
2023/06/24 01:08:50;;;;;;;13.65;2.50;;;24.10;44.30;;;;;;6241431;28;20021;-75
2023/06/24 01:11:52;;;;;;;6.32;2.47;;;24.10;44.50;;;;;;6256491;28;20631;-75
2023/06/24 01:14:52;;;;;;;4.72;1.98;;;24.10;44.60;;;;;;6239714;28;20156;-76
2023/06/24 01:18:21;;;;;;;6.65;2.10;;;24.10;44.60;;;;;;6240635;28;20021;-73
2023/06/24 01:21:53;;;;;;;3.03;2.05;;;24.10;44.60;;;;;;6240875;28;20165;-76
2023/06/24 01:25:23;;;;;;;4.15;2.00;;;24.10;44.40;;;;;;6255859;28;20037;-74
2023/06/24 01:28:49;;;;;;;6.70;2.20;;;24.10;44.20;;;;;;6254265;28;20052;-75
2023/06/24 01:32:21;;;;;;;6.22;2.22;;;24.20;44.10;;;;;;6255885;28;20038;-74
2023/06/24 01:35:28;;;;;;;2.17;1.50;;;24.20;44.00;;;;;;6188914;28;20054;-75
2023/06/24 01:38:41;;;;;;;4.72;2.65;;;24.20;44.10;;;;;;6184874;28;20569;-74
2023/06/24 01:41:50;;;;;;;3.67;1.85;;;24.10;44.40;;;;;;6155830;28;20180;-75
2023/06/24 01:44:52;;;;;;;3.30;2.08;;;24.00;44.60;;;;;;6156236;28;20026;-74
2023/06/24 01:48:01;;;;;;;6.45;2.72;;;23.90;44.90;;;;;;6187965;28;20030;-74
2023/06/24 01:51:07;;;;;;;4.32;2.10;;;23.80;45.20;;;;;;6172813;28;20593;-76
2023/06/24 01:54:13;;;;;;;3.80;2.10;;;23.70;45.50;;;;;;6172309;28;20070;-75
2023/06/24 01:57:15;;;;;;;5.53;2.30;;;23.70;45.60;;;;;;6189733;28;20069;-75
2023/06/24 02:00:18;;;;;;;4.47;2.40;;;23.60;45.60;;;;;;6180332;28;20058;-75
2023/06/24 02:03:27;;;;;;;5.55;2.05;;;23.60;45.70;;;;;;6213122;28;20124;-75
2023/06/24 02:06:29;;;;;;;3.78;2.20;;;23.60;45.60;;;;;;6197140;28;20042;-74
2023/06/24 02:09:33;;;;;;;4.95;2.13;;;23.60;45.50;;;;;;6217796;28;20121;-75
2023/06/24 02:12:35;;;;;;;3.72;2.25;;;23.70;45.50;;;;;;6218560;28;20056;-75
2023/06/24 02:15:39;;;;;;;4.13;2.40;;;23.70;45.60;;;;;;6231060;28;20037;-74
2023/06/24 02:18:43;;;;;;;5.75;2.28;;;23.70;45.80;;;;;;6239668;28;20047;-74
2023/06/24 02:21:45;;;;;;;3.08;2.08;;;23.70;45.90;;;;;;6255189;28;20084;-74
2023/06/24 02:24:47;;;;;;;3.78;2.15;;;23.70;46.00;;;;;;6238757;28;20705;-75
2023/06/24 02:27:48;;;;;;;3.70;2.17;;;23.70;46.00;;;;;;6242710;28;20496;-75
2023/06/24 02:30:50;;;;;;;7.35;2.25;;;23.70;46.20;;;;;;6260581;28;20041;-76
2023/06/24 02:33:51;;;;;;;4.10;2.20;;;23.70;46.20;;;;;;6243868;28;20063;-74
2023/06/24 02:36:54;;;;;;;5.00;2.00;;;23.60;46.10;;;;;;6226906;28;20029;-74
2023/06/24 02:39:55;;;;;;;5.68;2.67;;;23.60;46.20;;;;;;6259427;28;20061;-74
2023/06/24 02:42:58;;;;;;;5.63;2.30;;;23.50;46.30;;;;;;6244111;28;20109;-76
2023/06/24 02:46:01;;;;;;;3.55;2.00;;;23.50;46.50;;;;;;6259349;28;20026;-74
2023/06/24 02:49:03;;;;;;;4.07;2.20;;;23.40;46.60;;;;;;6242941;28;20095;-75
2023/06/24 02:52:05;;;;;;;5.95;2.60;;;23.40;46.70;;;;;;6242490;28;20124;-74
2023/06/24 02:55:07;;;;;;;4.45;2.42;;;23.40;46.80;;;;;;6259326;28;20036;-75
2023/06/24 02:58:20;;;;;;;5.88;2.10;;;23.40;47.00;;;;;;6258882;28;20547;-74
2023/06/24 03:01:29;;;;;;;2.92;2.00;;;23.30;47.20;;;;;;6258808;28;20045;-76
2023/06/24 03:04:32;;;;;;;4.68;2.33;;;23.20;47.40;;;;;;6242353;28;20037;-76
2023/06/24 03:07:36;;;;;;;3.10;2.17;;;23.10;47.60;;;;;;6259042;28;20473;-74
2023/06/24 03:10:37;;;;;;;4.72;2.20;;;23.00;47.80;;;;;;6258512;28;20034;-75
2023/06/24 03:13:42;;;;;;;3.55;2.20;;;23.00;48.10;;;;;;6259025;28;20034;-75
2023/06/24 03:17:09;;;;;;;3.35;2.13;;;22.90;48.30;;;;;;6216809;28;20435;-74
2023/06/24 03:20:10;;;;;;;4.93;2.08;;;22.80;48.40;;;;;;6233818;28;20029;-75
2023/06/24 03:23:12;;;;;;;7.60;1.90;;;22.80;48.40;;;;;;6217170;28;20086;-73
2023/06/24 03:26:13;;;;;;;3.70;1.80;;;22.70;48.50;;;;;;6217302;28;20122;-74
2023/06/24 03:29:16;;;;;;;4.13;1.83;;;22.70;48.50;;;;;;6217739;28;20564;-75
2023/06/24 03:32:37;;;;;;;6.40;2.13;;;22.70;48.60;;;;;;6230145;28;20060;-74
2023/06/24 03:35:38;;;;;;;3.58;2.30;;;22.60;48.70;;;;;;6234004;28;20026;-74
2023/06/24 03:38:44;;;;;;;3.45;2.30;;;22.60;48.90;;;;;;6250256;28;20055;-75
2023/06/24 03:41:45;;;;;;;6.38;2.40;;;22.60;49.30;;;;;;6241769;28;20048;-75
2023/06/24 03:44:48;;;;;;;7.88;2.90;;;22.60;49.30;;;;;;6258079;28;20127;-74
2023/06/24 03:47:49;;;;;;;8.52;2.67;;;22.60;49.40;;;;;;6258582;28;20124;-75
2023/06/24 03:50:52;;;;;;;5.53;2.72;;;22.70;49.60;;;;;;6241259;28;20037;-75
2023/06/24 03:53:54;;;;;;;5.28;2.50;;;22.60;49.60;;;;;;6241197;28;20025;-73
2023/06/24 03:56:55;;;;;;;10.40;2.45;;;22.60;49.70;;;;;;6258164;28;20075;-74
2023/06/24 03:59:56;;;;;;;4.60;2.65;;;22.50;49.80;;;;;;6258079;28;20267;-75
2023/06/24 04:03:01;;;;;;;5.93;2.80;;;22.50;50.00;;;;;;6240475;28;20039;-75
2023/06/24 04:06:01;;;;;;;5.07;2.53;;;22.50;50.10;;;;;;6242379;28;20030;-75
2023/06/24 04:09:03;;;;;;;7.47;2.90;;;22.50;50.10;;;;;;6242549;28;20044;-74
2023/06/24 04:12:04;;;;;;;7.30;2.67;;;22.50;50.40;;;;;;6256719;28;20037;-76
2023/06/24 04:15:09;;;;;;;5.20;2.53;;;22.40;50.30;;;;;;6241053;28;20045;-73
2023/06/24 04:18:10;;;;;;;5.22;2.80;;;22.50;50.40;;;;;;6240811;28;20765;-77
2023/06/24 04:21:11;;;;;;;5.55;2.80;;;22.50;50.40;;;;;;6257391;28;20064;-76
2023/06/24 04:24:11;;;;;;;8.95;2.80;;;22.50;50.40;;;;;;6257615;28;20029;-75
2023/06/24 04:27:12;;;;;;;4.13;2.72;;;22.40;50.50;;;;;;6241246;28;20033;-74
2023/06/24 04:30:13;;;;;;;6.93;2.70;;;22.40;50.60;;;;;;6243156;28;20122;-75
2023/06/24 04:33:14;;;;;;;6.82;2.30;;;22.30;50.60;;;;;;6241005;28;20184;-74
2023/06/24 04:36:16;;;;;;;4.10;2.50;;;22.30;50.70;;;;;;6240731;28;20474;-74
2023/06/24 04:39:18;;;;;;;16.80;2.70;;;22.20;50.70;;;;;;6268964;28;20594;-75
2023/06/24 04:42:18;;;;;;;4.72;2.13;;;22.20;50.90;;;;;;6239683;28;20108;-74
2023/06/24 04:45:20;;;;;;;4.70;2.35;;;22.20;51.00;;;;;;6241583;28;20056;-74
2023/06/24 04:48:24;;;;;;;3.20;2.60;;;22.20;51.10;;;;;;6241964;28;20112;-75
2023/06/24 04:51:25;;;;;;;4.80;2.50;;;22.10;51.10;;;;;;6257131;28;20034;-76
2023/06/24 04:54:26;;;;;;;10.02;2.70;;;22.10;51.20;;;;;;6242157;28;20025;-74
2023/06/24 04:57:29;;;;;;;9.55;2.85;;;22.10;51.20;;;;;;6242930;28;20039;-75
2023/06/24 05:00:30;;;;;;;7.68;3.00;;;22.10;51.30;;;;;;6265009;28;20117;-75
2023/06/24 05:03:31;;;;;;;4.78;3.00;;;22.10;51.50;;;;;;6239987;28;20026;-74
2023/06/24 05:06:32;;;;;;;4.40;2.58;;;22.20;51.50;;;;;;6241393;28;20128;-74
2023/06/24 05:09:33;;;;;;;8.23;2.72;;;22.00;51.50;;;;;;6239515;28;20446;-75
2023/06/24 05:12:33;;;;;;;7.15;2.67;;;22.10;51.80;;;;;;6239154;28;20433;-74
2023/06/24 05:15:34;;;;;;;6.10;3.08;;;22.10;51.50;;;;;;6256290;28;20076;-73
2023/06/24 05:18:35;;;;;;;5.13;2.63;;;22.20;51.50;;;;;;6241489;28;20076;-75
2023/06/24 05:21:36;;;;;;;5.35;3.08;;;22.20;51.50;;;;;;6256142;28;20025;-75
2023/06/24 05:24:37;;;;;;;5.10;3.13;;;22.30;51.50;;;;;;6256293;28;20053;-75
2023/06/24 05:27:38;;;;;;;4.47;2.90;;;22.30;51.40;;;;;;6240883;28;20497;-76
2023/06/24 05:30:40;;;;;;;4.93;2.75;;;22.30;51.30;;;;;;6239589;28;20040;-75
2023/06/24 05:33:41;;;;;;;7.50;3.00;;;22.40;51.20;;;;;;6241160;28;20033;-74
2023/06/24 05:36:42;;;;;;;4.28;2.70;;;22.40;51.20;;;;;;6243369;28;20063;-74
2023/06/24 05:39:43;;;;;;;6.13;2.50;;;22.40;51.00;;;;;;6249678;28;20037;-75
2023/06/24 05:42:44;;;;;;;10.32;2.88;;;22.40;51.10;;;;;;6239189;28;20028;-76
2023/06/24 05:45:45;;;;;;;8.65;3.22;;;22.50;51.10;;;;;;6241013;28;20037;-74
2023/06/24 05:48:46;;;;;;;11.43;2.90;;;22.40;51.00;;;;;;6240280;28;20021;-74
2023/06/24 05:51:46;;;;;;;5.57;3.53;;;22.60;51.10;;;;;;6255899;28;20497;-75
2023/06/24 05:54:48;;;;;;;6.18;3.25;;;22.60;51.00;;;;;;6255992;28;20390;-75
2023/06/24 05:57:49;;;;;;;4.68;2.83;;;22.70;50.90;;;;;;6240863;28;20040;-75
2023/06/24 06:00:50;;;;;;;6.43;3.20;;;22.80;50.80;;;;;;6241105;28;20108;-74
2023/06/24 06:03:51;;;;;;;6.40;3.00;;;22.90;50.70;;;;;;6241436;28;20025;-75
2023/06/24 06:06:52;;;;;;;4.15;3.08;;;22.90;50.60;;;;;;6244599;28;20656;-75
2023/06/24 06:09:53;;;;;;;5.22;2.85;;;22.90;50.60;;;;;;6245676;28;20025;-74
2023/06/24 06:12:53;;;;;;;4.20;2.22;;;23.00;50.50;;;;;;6244198;28;20085;-74
2023/06/24 06:15:55;;;;;;;5.40;2.50;;;23.10;50.30;;;;;;6245444;28;20033;-75
2023/06/24 06:18:56;;;;;;;5.80;2.95;;;23.10;50.10;;;;;;6245939;28;20044;-76
2023/06/24 06:21:57;;;;;;;8.43;2.92;;;23.20;49.80;;;;;;6244178;28;20037;-75
2023/06/24 06:24:57;;;;;;;5.05;3.00;;;23.30;49.70;;;;;;6243950;28;20043;-76
2023/06/24 06:27:58;;;;;;;6.20;3.20;;;23.40;49.60;;;;;;6245047;28;20124;-76
2023/06/24 06:30:59;;;;;;;5.05;2.95;;;23.50;49.50;;;;;;6279923;28;20102;-75
2023/06/24 06:34:01;;;;;;;8.27;2.95;;;23.60;49.10;;;;;;6246319;28;20075;-75
2023/06/24 06:37:02;;;;;;;5.70;3.03;;;23.70;48.70;;;;;;6244868;28;20025;-75
2023/06/24 06:40:04;;;;;;;4.32;2.70;;;23.80;48.60;;;;;;6260418;28;20040;-74
2023/06/24 06:43:05;;;;;;;5.35;2.42;;;23.80;48.50;;;;;;6243537;28;20107;-77
2023/06/24 06:46:06;;;;;;;3.75;2.70;;;23.90;48.20;;;;;;6244217;28;20481;-75
2023/06/24 06:49:07;;;;;;;7.15;2.97;;;24.00;47.80;;;;;;6244154;28;20095;-74
2023/06/24 06:52:08;;;;;;;6.70;2.60;;;24.10;47.50;;;;;;6244357;28;20037;-75
2023/06/24 06:55:09;;;;;;;5.22;2.75;;;24.10;47.20;;;;;;6244431;28;20084;-74
2023/06/24 06:58:10;;;;;;;4.85;2.78;;;24.10;47.20;;;;;;6259728;28;20176;-76
2023/06/24 07:01:11;;;;;;;6.38;2.95;;;24.10;47.20;;;;;;6242770;28;20486;-75
2023/06/24 07:04:12;;;;;;;3.80;2.55;;;24.20;47.00;;;;;;6241975;28;20041;-75
2023/06/24 07:07:14;;;;;;;6.38;3.08;;;24.30;47.00;;;;;;6244257;28;20036;-74
2023/06/24 07:10:14;;;;;;;5.50;2.80;;;24.40;47.00;;;;;;6244358;28;20076;-73
2023/06/24 07:13:15;;;;;;;4.45;2.33;;;24.50;46.80;;;;;;6242233;28;20103;-75
2023/06/24 07:16:17;;;;;;;5.32;2.55;;;24.70;46.50;;;;;;6244751;28;20512;-75
2023/06/24 07:19:18;;;;;;;5.03;2.95;;;24.80;45.90;;;;;;6242826;28;20128;-75
2023/06/24 07:22:18;;;;;;;9.65;2.72;;;24.90;45.20;;;;;;6242679;28;20040;-75
2023/06/24 07:25:19;;;;;;;8.15;2.88;;;24.90;45.20;;;;;;6243814;28;20038;-76
2023/06/24 07:28:20;;;;;;;4.13;2.63;;;25.00;45.20;;;;;;6242470;28;20048;-76
2023/06/24 07:31:21;;;;;;;4.13;2.20;;;25.10;44.80;;;;;;6259079;28;20470;-74
2023/06/24 07:34:22;;;;;;;6.63;3.13;;;25.30;44.40;;;;;;6242508;28;20096;-74
2023/06/24 07:37:24;;;;;;;4.50;2.00;;;25.30;44.20;;;;;;6249343;28;20343;-74
2023/06/24 07:40:24;;;;;;;6.00;2.40;;;25.50;43.80;;;;;;6241014;28;20549;-74
2023/06/24 07:43:26;;;;;;;5.97;2.75;;;25.60;43.30;;;;;;6244546;28;20022;-74
2023/06/24 07:46:27;;;;;;;9.23;2.92;;;25.70;43.00;;;;;;6259713;28;20053;-74
2023/06/24 07:49:28;;;;;;;4.53;3.05;;;25.80;42.70;;;;;;6244195;28;20052;-74
2023/06/24 07:52:29;;;;;;;4.55;2.78;;;25.90;42.40;;;;;;6251074;28;20034;-75
2023/06/24 07:55:30;;;;;;;3.67;2.17;;;25.90;42.10;;;;;;6244195;28;20142;-76
2023/06/24 07:58:31;;;;;;;7.40;2.63;;;25.90;42.10;;;;;;6243875;28;20025;-74
2023/06/24 08:01:32;;;;;;;3.33;2.53;;;26.10;42.20;;;;;;6258714;28;20113;-75
2023/06/24 08:04:33;;;;;;;3.38;2.58;;;26.30;42.00;;;;;;6243151;28;20375;-74
2023/06/24 08:07:34;;;;;;;5.00;2.75;;;26.40;41.80;;;;;;6258702;28;20044;-75
2023/06/24 08:10:35;;;;;;;6.13;3.22;;;26.60;41.40;;;;;;6258761;28;20080;-75
2023/06/24 08:13:36;;;;;;;3.92;2.50;;;26.70;41.10;;;;;;6241977;28;20435;-74
2023/06/24 08:16:37;;;;;;;7.32;2.85;;;26.80;40.90;;;;;;6243951;28;20028;-75
2023/06/24 08:19:38;;;;;;;5.15;2.53;;;26.90;40.70;;;;;;6242650;28;20084;-74
2023/06/24 08:22:39;;;;;;;4.90;2.40;;;27.00;40.60;;;;;;6258897;28;20033;-75
2023/06/24 08:25:40;;;;;;;6.15;2.92;;;27.10;40.60;;;;;;6243915;28;20059;-75
2023/06/24 08:28:41;;;;;;;6.85;3.53;;;27.10;40.20;;;;;;6246406;28;20060;-75
2023/06/24 08:31:42;;;;;;;4.22;2.50;;;27.20;39.80;;;;;;6249826;28;20466;-74
2023/06/24 08:34:43;;;;;;;5.35;2.50;;;27.30;39.40;;;;;;6259274;28;20064;-75
2023/06/24 08:37:44;;;;;;;5.82;2.60;;;27.30;39.20;;;;;;6230914;28;20060;-75
2023/06/24 08:40:47;;;;;;;5.45;2.58;;;27.50;39.20;;;;;;6233454;28;20042;-75
2023/06/24 08:43:48;;;;;;;3.45;2.53;;;27.50;39.10;;;;;;6233312;28;20030;-74
2023/06/24 08:46:49;;;;;;;4.82;2.63;;;27.60;38.90;;;;;;6256802;28;20112;-74
2023/06/24 08:49:56;;;;;;;8.48;2.75;;;27.60;38.80;;;;;;6241484;28;20855;-76
2023/06/24 08:52:57;;;;;;;7.82;2.90;;;27.60;38.80;;;;;;6243121;28;20029;-74
2023/06/24 08:55:58;;;;;;;4.15;2.35;;;27.60;38.90;;;;;;6257900;28;20041;-74
2023/06/24 08:58:59;;;;;;;6.80;3.00;;;27.70;38.70;;;;;;6259010;28;20029;-75
2023/06/24 09:02:01;;;;;;;5.45;2.67;;;27.80;38.50;;;;;;6242078;28;20037;-75
2023/06/24 09:05:03;;;;;;;6.40;3.17;;;27.90;38.50;;;;;;6258573;28;20481;-74
2023/06/24 09:08:04;;;;;;;3.80;2.35;;;28.00;38.60;;;;;;6257951;28;20026;-74
2023/06/24 09:11:08;;;;;;;4.50;2.45;;;28.00;38.50;;;;;;6257602;28;20144;-75
2023/06/24 09:14:16;;;;;;;4.95;3.10;;;28.10;38.50;;;;;;6242015;28;20198;-74
2023/06/24 09:17:18;;;;;;;4.03;2.55;;;28.10;38.00;;;;;;6242909;28;20034;-76
2023/06/24 09:20:21;;;;;;;5.50;3.38;;;28.20;37.80;;;;;;6243408;28;20037;-76
2023/06/24 09:23:26;;;;;;;3.88;2.97;;;28.20;37.50;;;;;;6242421;28;20034;-74
2023/06/24 09:26:29;;;;;;;6.15;3.10;;;28.20;37.50;;;;;;6240180;28;20045;-76
2023/06/24 09:29:35;;;;;;;7.60;2.58;;;28.30;37.30;;;;;;6241115;28;20049;-75
2023/06/24 09:32:36;;;;;;;4.25;2.90;;;28.20;37.20;;;;;;6242204;28;20031;-75
2023/06/24 09:35:38;;;;;;;6.93;2.95;;;28.20;37.30;;;;;;6240285;28;20136;-75
2023/06/24 09:38:40;;;;;;;4.85;2.72;;;28.20;37.20;;;;;;6256494;28;20064;-77
2023/06/24 09:41:42;;;;;;;4.88;3.10;;;28.20;37.10;;;;;;6248133;28;20033;-74
2023/06/24 09:44:43;;;;;;;4.32;2.33;;;28.20;37.10;;;;;;6228953;28;20037;-75
2023/06/24 09:47:44;;;;;;;3.72;2.53;;;28.20;36.80;;;;;;6245292;28;20052;-75
2023/06/24 09:50:46;;;;;;;4.05;2.90;;;28.20;36.70;;;;;;6261325;28;20025;-75
2023/06/24 09:53:47;;;;;;;3.35;2.50;;;28.30;36.80;;;;;;6246430;28;20029;-75
2023/06/24 09:56:53;;;;;;;3.90;2.20;;;28.40;36.60;;;;;;6247223;28;20029;-74
2023/06/24 09:59:54;;;;;;;3.80;2.13;;;28.50;36.40;;;;;;6246260;28;20668;-76
2023/06/24 10:02:55;;;;;;;5.38;3.22;;;28.60;36.30;;;;;;6245628;28;20397;-74
2023/06/24 10:05:57;;;;;;;4.53;2.55;;;28.70;36.20;;;;;;6245053;28;20100;-77
2023/06/24 10:08:59;;;;;;;5.13;2.53;;;28.80;36.10;;;;;;6245728;28;20427;-74
2023/06/24 10:12:01;;;;;;;5.82;3.00;;;28.80;36.00;;;;;;6244518;28;20041;-77
2023/06/24 10:15:02;;;;;;;6.57;2.63;;;28.90;35.80;;;;;;6245459;28;20117;-75
2023/06/24 10:18:23;;;;;;;5.07;2.45;;;29.00;36.30;;;;;;6245061;28;20029;-76
2023/06/24 10:21:49;;;;;;;3.83;2.58;;;29.10;35.50;;;;;;6245338;28;20125;-75
2023/06/24 10:24:52;;;;;;;6.90;2.50;;;29.10;35.30;;;;;;6261418;28;20575;-75
2023/06/24 10:27:56;;;;;;;4.47;3.00;;;29.20;35.10;;;;;;6260677;28;20057;-76
2023/06/24 10:30:57;;;;;;;8.00;2.55;;;29.20;35.10;;;;;;6248008;28;20564;-76
2023/06/24 10:33:59;;;;;;;4.07;2.47;;;29.30;35.00;;;;;;6244158;28;20037;-74
2023/06/24 10:37:10;;;;;;;4.35;2.47;;;29.30;35.00;;;;;;6261078;28;20124;-74
2023/06/24 10:40:11;;;;;;;4.00;2.50;;;29.30;34.90;;;;;;6247952;28;20030;-76
2023/06/24 10:43:24;;;;;;;9.60;2.75;;;29.40;34.70;;;;;;6248753;28;20124;-76
2023/06/24 10:46:27;;;;;;;5.18;2.90;;;29.30;34.50;;;;;;6242921;28;20037;-76
2023/06/24 10:49:28;;;;;;;4.82;2.78;;;29.30;34.60;;;;;;6242503;28;20119;-74
2023/06/24 10:52:29;;;;;;;4.30;2.63;;;29.30;34.60;;;;;;6243133;28;20041;-75
2023/06/24 10:55:30;;;;;;;3.13;2.60;;;29.40;34.30;;;;;;6244495;28;20029;-75
2023/06/24 10:58:31;;;;;;;7.40;2.90;;;29.50;33.90;;;;;;6245269;28;20026;-76
2023/06/24 11:01:32;;;;;;;4.47;2.28;;;29.50;33.80;;;;;;6243470;28;20040;-74
2023/06/24 11:04:33;;;;;;;5.20;2.92;;;29.60;33.90;;;;;;6242834;28;20041;-76
2023/06/24 11:07:37;;;;;;;3.00;2.05;;;29.70;33.60;;;;;;6242626;28;20107;-75
2023/06/24 11:10:48;;;;;;;4.95;2.10;;;30.30;32.70;;;;;;6243824;28;20038;-78
2023/06/24 11:13:49;;;;;;;3.55;2.30;;;31.60;31.00;;;;;;6242407;28;20031;-75
2023/06/24 11:16:50;;;;;;;4.05;2.35;;;32.80;29.70;;;;;;6242352;28;20120;-76
2023/06/24 11:19:54;;;;;;;3.35;2.20;;;33.60;28.60;;;;;;6242055;28;20120;-75
2023/06/24 11:22:55;;;;;;;4.20;2.60;;;34.20;27.70;;;;;;6243662;28;20407;-75
2023/06/24 11:26:00;;;;;;;8.65;3.03;;;34.60;27.20;;;;;;6259019;28;20037;-76
2023/06/24 11:29:08;;;;;;;3.22;2.47;;;35.10;27.00;;;;;;6259101;28;20048;-75
2023/06/24 11:32:10;;;;;;;5.10;3.13;;;35.70;26.60;;;;;;6258970;28;20029;-76
2023/06/24 11:35:14;;;;;;;5.30;2.50;;;36.40;26.30;;;;;;6242844;28;20450;-75
2023/06/24 11:38:16;;;;;;;7.68;2.58;;;37.10;25.80;;;;;;6254021;28;20121;-75
2023/06/24 11:41:21;;;;;;;3.83;2.45;;;37.50;25.20;;;;;;6240920;28;20112;-73
2023/06/24 11:44:24;;;;;;;3.85;2.45;;;37.90;25.00;;;;;;6242914;28;20086;-76
2023/06/24 11:47:25;;;;;;;3.08;2.30;;;38.20;24.80;;;;;;6258207;28;20061;-76
2023/06/24 11:50:27;;;;;;;2.45;2.22;;;38.40;24.60;;;;;;6241465;28;20087;-74
2023/06/24 11:53:44;;;;;;;6.80;2.75;;;38.70;24.50;;;;;;6241654;28;20111;-75
2023/06/24 11:56:53;;;;;;;9.20;2.97;;;39.00;24.20;;;;;;6243282;28;20060;-75
2023/06/24 11:59:54;;;;;;;2.63;2.30;;;39.40;23.80;;;;;;6242154;28;20089;-74
2023/06/24 12:03:13;;;;;;;3.10;2.35;;;39.60;23.70;;;;;;6242453;28;20034;-74
2023/06/24 12:06:14;;;;;;;4.38;2.70;;;39.80;23.40;;;;;;6243015;28;20041;-74
2023/06/24 12:09:15;;;;;;;3.58;2.50;;;39.90;23.30;;;;;;6242503;28;20051;-76
2023/06/24 12:12:16;;;;;;;3.72;2.50;;;39.80;23.30;;;;;;6241554;28;20437;-76
2023/06/24 12:15:17;;;;;;;3.53;2.10;;;39.90;23.80;;;;;;6257505;28;20029;-74
2023/06/24 12:18:18;;;;;;;5.13;2.50;;;40.10;23.20;;;;;;6257894;28;20041;-76
2023/06/24 12:21:19;;;;;;;4.20;2.47;;;40.30;22.90;;;;;;6242699;28;20079;-75
2023/06/24 12:24:21;;;;;;;3.60;2.15;;;40.30;22.90;;;;;;6245828;28;20163;-75
2023/06/24 12:27:21;;;;;;;4.15;2.63;;;40.40;23.00;;;;;;6254030;28;20116;-75
2023/06/24 12:30:22;;;;;;;9.65;3.00;;;40.60;22.80;;;;;;6258531;28;20462;-76
2023/06/24 12:33:23;;;;;;;4.43;2.40;;;40.90;22.60;;;;;;6242063;28;20116;-75
2023/06/24 12:36:24;;;;;;;5.53;2.70;;;41.10;22.40;;;;;;6258751;28;20033;-78
2023/06/24 12:39:25;;;;;;;7.32;2.40;;;41.30;22.30;;;;;;6240682;28;20025;-74
2023/06/24 12:42:27;;;;;;;5.82;2.70;;;41.50;22.20;;;;;;6241606;28;20038;-75
2023/06/24 12:45:28;;;;;;;3.22;2.45;;;41.80;21.80;;;;;;6240334;28;20717;-75
2023/06/24 12:48:29;;;;;;;4.75;2.95;;;41.90;21.70;;;;;;6240079;28;20030;-76
2023/06/24 12:51:30;;;;;;;3.38;2.47;;;42.00;21.70;;;;;;6241579;28;20091;-76
2023/06/24 12:54:30;;;;;;;2.88;2.15;;;42.10;21.60;;;;;;6239914;28;20035;-75
2023/06/24 12:57:31;;;;;;;4.05;2.72;;;42.00;21.70;;;;;;6241155;28;20052;-74
2023/06/24 13:00:32;;;;;;;5.32;2.55;;;42.10;21.70;;;;;;6239677;28;20045;-75
2023/06/24 13:03:33;;;;;;;3.33;2.58;;;42.30;21.60;;;;;;6256570;28;20390;-75
2023/06/24 13:06:34;;;;;;;4.05;2.65;;;42.50;21.30;;;;;;6241254;28;20398;-75
2023/06/24 13:09:36;;;;;;;7.55;2.47;;;42.90;21.10;;;;;;6253542;28;20026;-74
2023/06/24 13:12:39;;;;;;;5.90;2.50;;;43.20;20.90;;;;;;6256525;28;20040;-74
2023/06/24 13:15:44;;;;;;;5.82;2.67;;;43.50;20.50;;;;;;6258778;28;20052;-74
2023/06/24 13:18:45;;;;;;;3.17;2.60;;;43.80;20.40;;;;;;6263180;28;20135;-75
2023/06/24 13:21:46;;;;;;;2.97;2.40;;;44.10;20.10;;;;;;6241356;28;20490;-74
2023/06/24 13:24:48;;;;;;;3.47;2.15;;;44.50;19.80;;;;;;6256821;28;20030;-75
2023/06/24 13:27:49;;;;;;;4.78;2.47;;;44.70;19.50;;;;;;6239666;28;20071;-74
2023/06/24 13:30:51;;;;;;;2.60;1.90;;;44.70;19.30;;;;;;6239824;28;20033;-75
2023/06/24 13:33:53;;;;;;;5.78;2.38;;;44.70;19.20;;;;;;6243774;28;20048;-75
2023/06/24 13:36:54;;;;;;;6.90;2.33;;;45.00;19.00;;;;;;6245100;28;20025;-75
2023/06/24 13:39:55;;;;;;;4.28;2.40;;;45.50;18.40;;;;;;6248053;28;20101;-73
2023/06/24 13:42:56;;;;;;;4.35;2.25;;;45.60;18.00;;;;;;6239106;28;20045;-75
2023/06/24 13:45:57;;;;;;;5.95;2.33;;;45.90;17.70;;;;;;6240659;28;20033;-76
2023/06/24 13:48:59;;;;;;;2.92;2.38;;;46.10;17.30;;;;;;6239332;28;20048;-75
2023/06/24 13:52:00;;;;;;;2.83;2.35;;;46.40;17.20;;;;;;6240602;28;20056;-75
2023/06/24 13:55:01;;;;;;;4.82;2.30;;;46.50;16.90;;;;;;6240747;28;20486;-75
2023/06/24 13:58:02;;;;;;;3.03;2.33;;;46.50;16.70;;;;;;6239383;28;20029;-75
2023/06/24 14:01:03;;;;;;;3.80;2.38;;;46.70;16.40;;;;;;6239518;28;20026;-75
2023/06/24 14:04:04;;;;;;;2.58;2.10;;;46.90;16.20;;;;;;6240198;28;20453;-75
2023/06/24 14:07:06;;;;;;;3.08;2.13;;;47.20;15.90;;;;;;6255231;28;20465;-75
2023/06/24 14:10:07;;;;;;;3.45;2.05;;;47.80;15.40;;;;;;6255716;28;20025;-75
2023/06/24 14:13:09;;;;;;;3.92;2.38;;;47.90;15.20;;;;;;6255395;28;20144;-74
2023/06/24 14:16:11;;;;;;;2.58;2.15;;;48.30;15.00;;;;;;6239059;28;20097;-75
2023/06/24 14:19:11;;;;;;;3.13;2.10;;;48.60;14.80;;;;;;6239054;28;20809;-76
2023/06/24 14:22:12;;;;;;;3.28;2.55;;;48.70;14.60;;;;;;6261830;28;20040;-75
2023/06/24 14:25:13;;;;;;;3.95;2.17;;;48.90;14.50;;;;;;6266012;28;20203;-74
2023/06/24 14:28:14;;;;;;;5.85;2.60;;;48.80;14.30;;;;;;6270014;28;20021;-74
2023/06/24 14:31:15;;;;;;;3.03;2.20;;;49.00;14.30;;;;;;6250409;28;20037;-76
2023/06/24 14:34:16;;;;;;;2.80;2.17;;;49.30;14.10;;;;;;6243106;28;20130;-76
2023/06/24 14:37:17;;;;;;;2.35;1.90;;;49.50;14.00;;;;;;6253398;28;20074;-75
2023/06/24 14:40:18;;;;;;;2.80;2.15;;;49.70;13.80;;;;;;6246529;28;20037;-75
2023/06/24 14:43:19;;;;;;;4.22;2.60;;;49.70;13.70;;;;;;6242399;28;20076;-76
2023/06/24 14:46:20;;;;;;;2.78;2.38;;;49.70;13.60;;;;;;6259416;28;20041;-77
2023/06/24 14:49:21;;;;;;;2.78;2.08;;;49.50;13.50;;;;;;6244317;28;20052;-74
2023/06/24 14:52:22;;;;;;;4.38;2.17;;;49.20;13.60;;;;;;6242135;28;20461;-74
2023/06/24 14:55:23;;;;;;;3.28;2.45;;;49.00;13.60;;;;;;6259345;28;20500;-74
2023/06/24 14:58:23;;;;;;;4.25;2.25;;;49.00;13.70;;;;;;6242982;28;20034;-76
2023/06/24 15:01:25;;;;;;;5.05;2.72;;;48.80;13.70;;;;;;6242573;28;20044;-75
2023/06/24 15:04:26;;;;;;;5.90;2.83;;;49.00;13.60;;;;;;6243580;28;20032;-74
2023/06/24 15:07:27;;;;;;;4.45;2.08;;;48.80;13.60;;;;;;6258636;28;20093;-76
2023/06/24 15:10:28;;;;;;;4.53;2.65;;;48.30;13.80;;;;;;6243847;28;20123;-74
2023/06/24 15:13:28;;;;;;;3.00;2.15;;;48.10;13.90;;;;;;6242317;28;20072;-74
2023/06/24 15:16:29;;;;;;;3.85;2.78;;;48.10;13.90;;;;;;6258972;28;20030;-75
2023/06/24 15:19:30;;;;;;;5.90;2.25;;;48.00;13.90;;;;;;6243351;28;20120;-75
2023/06/24 15:22:31;;;;;;;4.32;2.22;;;47.90;14.00;;;;;;6241501;28;20148;-75
2023/06/24 15:25:32;;;;;;;3.10;2.33;;;47.80;14.00;;;;;;6243717;28;20037;-74
2023/06/24 15:28:33;;;;;;;2.70;2.38;;;47.60;14.50;;;;;;6241614;28;20061;-74
2023/06/24 15:31:35;;;;;;;3.13;2.50;;;47.40;14.10;;;;;;6242217;28;20091;-75
2023/06/24 15:34:36;;;;;;;2.47;2.20;;;47.20;14.20;;;;;;6243129;28;20343;-75
2023/06/24 15:37:37;;;;;;;5.93;2.25;;;47.00;14.30;;;;;;6253195;28;20036;-75
2023/06/24 15:40:42;;;;;;;3.75;2.70;;;46.70;14.30;;;;;;6244575;28;20057;-76
2023/06/24 15:43:43;;;;;;;4.68;2.53;;;46.50;14.50;;;;;;6241661;28;20524;-74
2023/06/24 15:46:46;;;;;;;3.85;2.80;;;46.30;14.60;;;;;;6242292;28;20029;-75
2023/06/24 15:49:47;;;;;;;4.18;2.60;;;46.30;14.60;;;;;;6244152;28;20446;-75